Arrival - Weather - Departure
Ostend Airport (EBOS - OST)
This page refreshes every 5 minutes.
Contact New Style NL | EN  Best Resolution: 1280x1024

Page last updated at 15:15:47
WEER EBOS TEST PAGE WEER
The report was made at 12:50 UTC (Now: 13:15:47 UTC)
The wind blows with a force of 26 km/h and is from the west
The sight is 9999 meter Runway 26 in use
The temperature is 13 °C The dew point is 09 °C
The humidity is 77 %
The air pressure is 1014 HPa
The weather is now few clouds at 671 meter altitude
The next two hours there is no significant change
2017/04/24 12:50 EBOS 241250Z 28014KT 9999 FEW022 13/09 Q1014 NOSIG
METAR EBOS TAF EBOS Info METAR
© Bert Sanders

 
Interesting websites about EBOS
EBOS-Spotting
REPLO
Website airport
Other interesting websites
Spottinggroup RS06
Android app on Google Play